Time;durP1;ratioP1;P1;durP2;ratioP2;P2;SDS_P1;SDS_P2;PMS_P1;PMS_P2;Temp;Humidity;BMP_temperature;BMP_pressure;BME280_temperature;BME280_humidity;BME280_pressure;Samples;Min_cycle;Max_cycle;Signal;HPM_P1;HPM_P2
2021/08/28 00:00:05;;;;;;;3.05;1.65;;;13.00;99.90;;;;;;4915943;29;20657;-96
2021/08/28 00:02:31;;;;;;;5.45;1.70;;;13.00;99.90;;;;;;4931238;29;20196;-95
2021/08/28 00:04:56;;;;;;;3.45;1.70;;;13.00;99.90;;;;;;4931283;29;20217;-95
2021/08/28 00:07:24;;;;;;;4.07;1.80;;;13.00;99.90;;;;;;4929938;29;20185;-94
2021/08/28 00:09:49;;;;;;;2.75;1.42;;;13.00;99.90;;;;;;4927105;29;20193;-92
2021/08/28 00:12:16;;;;;;;1.95;1.77;;;13.00;99.90;;;;;;4922385;29;20194;-93
2021/08/28 00:14:46;;;;;;;6.22;1.75;;;13.00;99.90;;;;;;4923107;29;20190;-93
2021/08/28 00:17:13;;;;;;;3.92;1.60;;;13.00;99.90;;;;;;4924340;29;20198;-92
2021/08/28 00:19:39;;;;;;;1.88;1.65;;;13.00;99.90;;;;;;4915305;29;20198;-96
2021/08/28 00:22:05;;;;;;;5.28;1.67;;;13.00;99.90;;;;;;4915654;29;20237;-95
2021/08/28 00:24:32;;;;;;;7.38;1.88;;;12.90;99.90;;;;;;4932035;29;20199;-95
2021/08/28 00:26:58;;;;;;;5.05;1.88;;;13.00;99.90;;;;;;4916445;29;20194;-95
2021/08/28 00:29:24;;;;;;;8.15;1.77;;;12.90;99.90;;;;;;4916020;29;20194;-96
2021/08/28 00:31:49;;;;;;;3.70;1.80;;;12.90;99.90;;;;;;4916351;29;20190;-96
2021/08/28 00:34:15;;;;;;;6.25;1.80;;;12.90;99.90;;;;;;4916868;29;20253;-96
2021/08/28 00:36:43;;;;;;;9.43;2.17;;;12.90;99.90;;;;;;4914929;29;20234;-96
2021/08/28 00:39:13;;;;;;;4.40;1.83;;;12.90;99.90;;;;;;4918526;29;20191;-96
2021/08/28 00:41:42;;;;;;;4.00;1.65;;;12.90;99.90;;;;;;4918407;29;20234;-96
2021/08/28 00:44:09;;;;;;;3.72;1.60;;;12.90;99.90;;;;;;4917653;29;20254;-96
2021/08/28 00:46:36;;;;;;;3.03;1.70;;;12.80;99.90;;;;;;4917537;29;20198;-96
2021/08/28 00:49:03;;;;;;;3.60;1.58;;;12.80;99.90;;;;;;4942379;29;20198;-91
2021/08/28 00:51:28;;;;;;;2.10;1.90;;;12.90;99.90;;;;;;4934671;29;20190;-95
2021/08/28 00:53:54;;;;;;;5.97;1.90;;;12.90;99.90;;;;;;4935295;29;20186;-94
2021/08/28 00:56:21;;;;;;;5.03;1.60;;;12.90;99.90;;;;;;4933801;29;20280;-95
2021/08/28 00:58:49;;;;;;;3.05;1.45;;;12.90;99.90;;;;;;4935907;29;20190;-96
2021/08/28 01:01:20;;;;;;;2.05;1.50;;;12.90;99.90;;;;;;4935632;29;20200;-96
2021/08/28 01:03:52;;;;;;;2.50;1.55;;;12.90;99.90;;;;;;4936580;29;20194;-96
2021/08/28 01:06:27;;;;;;;3.00;1.50;;;12.90;99.90;;;;;;4921675;29;20198;-95
2021/08/28 01:09:08;;;;;;;3.15;1.70;;;12.90;99.90;;;;;;4936632;29;20213;-96
2021/08/28 01:11:42;;;;;;;4.47;1.83;;;12.90;99.90;;;;;;4935201;29;20190;-96
2021/08/28 01:14:16;;;;;;;2.55;1.50;;;12.90;99.90;;;;;;4936227;29;20182;-94
2021/08/28 01:16:51;;;;;;;4.20;1.55;;;12.90;99.90;;;;;;4934256;29;20226;-95
2021/08/28 01:19:41;;;;;;;2.40;1.70;;;12.90;99.90;;;;;;4935155;29;20201;-95
2021/08/28 01:22:11;;;;;;;3.13;1.60;;;12.90;99.90;;;;;;4918775;29;20257;-95
2021/08/28 01:24:39;;;;;;;1.98;1.33;;;13.00;99.90;;;;;;4938183;29;20205;-92
2021/08/28 01:27:40;;;;;;;4.05;1.45;;;12.90;99.90;;;;;;4938385;29;20253;-95
2021/08/28 01:30:16;;;;;;;4.95;1.80;;;13.00;99.90;;;;;;4940204;29;20272;-93
2021/08/28 01:32:55;;;;;;;3.13;1.40;;;13.00;99.90;;;;;;4939156;29;20174;-94
2021/08/28 01:35:22;;;;;;;5.88;1.60;;;13.00;99.90;;;;;;4935781;29;20571;-95
2021/08/28 01:37:50;;;;;;;4.07;1.70;;;13.10;99.90;;;;;;4936810;29;20532;-96
2021/08/28 01:40:19;;;;;;;3.10;1.40;;;13.10;99.90;;;;;;4921834;29;20214;-96
2021/08/28 01:42:46;;;;;;;1.67;1.58;;;13.20;99.90;;;;;;4923294;29;20205;-96
2021/08/28 01:45:15;;;;;;;3.38;1.65;;;13.10;99.90;;;;;;4936433;29;20189;-96
2021/08/28 01:47:43;;;;;;;2.65;1.50;;;13.10;99.90;;;;;;4933603;29;20179;-95
2021/08/28 01:50:14;;;;;;;4.32;1.60;;;13.10;99.90;;;;;;4932050;29;20218;-96
2021/08/28 01:52:40;;;;;;;3.90;1.38;;;13.10;99.90;;;;;;4931351;29;20190;-96
2021/08/28 01:55:15;;;;;;;1.40;1.30;;;13.10;99.90;;;;;;4930804;29;20290;-96
2021/08/28 01:57:44;;;;;;;2.35;1.60;;;13.10;99.90;;;;;;4933203;29;20217;-96
2021/08/28 02:00:13;;;;;;;2.00;1.67;;;13.10;99.90;;;;;;4918228;29;20237;-95
2021/08/28 02:02:40;;;;;;;1.70;1.50;;;13.10;99.90;;;;;;4936903;29;20216;-96
2021/08/28 02:05:12;;;;;;;8.15;1.65;;;13.10;99.90;;;;;;4954106;29;20206;-93
2021/08/28 02:07:54;;;;;;;3.30;1.75;;;13.10;99.90;;;;;;4938360;29;20213;-95
2021/08/28 02:10:51;;;;;;;3.13;1.98;;;13.10;99.90;;;;;;4937048;29;20213;-95
2021/08/28 02:13:51;;;;;;;3.65;1.58;;;13.00;99.90;;;;;;4951806;29;20222;-92
2021/08/28 02:16:25;;;;;;;2.22;1.80;;;13.00;99.90;;;;;;4937211;29;20244;-96
2021/08/28 02:19:05;;;;;;;3.30;1.88;;;12.90;99.90;;;;;;4935527;29;20205;-93
2021/08/28 02:21:34;;;;;;;4.78;1.67;;;13.00;99.90;;;;;;4954528;29;20159;-92
2021/08/28 02:24:12;;;;;;;5.03;1.77;;;13.00;99.90;;;;;;4936947;29;20613;-94
2021/08/28 02:26:44;;;;;;;2.10;1.65;;;13.00;99.90;;;;;;4937401;29;20169;-93
2021/08/28 02:29:19;;;;;;;5.57;1.88;;;13.00;99.90;;;;;;4934865;29;20253;-95
2021/08/28 02:31:48;;;;;;;3.58;1.70;;;13.00;99.90;;;;;;4934419;29;20229;-96
2021/08/28 02:34:17;;;;;;;2.75;1.52;;;13.00;99.90;;;;;;4930420;29;20190;-96
2021/08/28 02:36:45;;;;;;;2.35;1.60;;;13.00;99.90;;;;;;4930314;29;20232;-95
2021/08/28 02:39:15;;;;;;;1.95;1.60;;;13.00;99.90;;;;;;4927729;29;20190;-95
2021/08/28 02:41:43;;;;;;;2.00;1.80;;;13.00;99.90;;;;;;4926861;29;20265;-95
2021/08/28 02:44:11;;;;;;;1.90;1.80;;;13.00;99.90;;;;;;4927351;29;20197;-96
2021/08/28 02:46:42;;;;;;;1.90;1.63;;;13.00;99.90;;;;;;4926355;29;20252;-96
2021/08/28 02:49:08;;;;;;;2.00;1.52;;;13.00;99.90;;;;;;4925171;29;20201;-94
2021/08/28 02:51:36;;;;;;;4.53;1.98;;;13.00;99.90;;;;;;4925624;29;20187;-96
2021/08/28 02:54:03;;;;;;;2.60;1.60;;;13.00;99.90;;;;;;4925879;29;20182;-96
2021/08/28 02:56:32;;;;;;;1.58;1.40;;;13.00;99.90;;;;;;4925025;29;20217;-96
2021/08/28 02:58:59;;;;;;;3.03;1.77;;;13.00;99.90;;;;;;4925229;29;20217;-95
2021/08/28 03:01:28;;;;;;;2.25;1.65;;;13.00;99.90;;;;;;4925143;29;20189;-95
2021/08/28 03:03:55;;;;;;;4.55;2.25;;;13.00;99.90;;;;;;4924564;29;20197;-93
2021/08/28 03:06:26;;;;;;;5.28;1.75;;;13.00;99.90;;;;;;4925041;29;20280;-93
2021/08/28 03:08:52;;;;;;;3.67;1.80;;;13.00;99.90;;;;;;4924658;29;20189;-93
2021/08/28 03:11:20;;;;;;;2.13;1.52;;;13.00;99.90;;;;;;4925319;29;20248;-93
2021/08/28 03:13:46;;;;;;;6.20;2.13;;;13.00;99.90;;;;;;4924378;29;20193;-93
2021/08/28 03:16:13;;;;;;;3.13;1.80;;;13.00;99.90;;;;;;4924024;29;20217;-92
2021/08/28 03:18:42;;;;;;;2.08;1.88;;;13.00;99.90;;;;;;4924043;29;20197;-92
2021/08/28 03:21:11;;;;;;;2.80;2.03;;;13.00;99.90;;;;;;4923948;29;20201;-93
2021/08/28 03:23:39;;;;;;;2.40;1.90;;;13.00;99.90;;;;;;4923654;29;20237;-94
2021/08/28 03:26:08;;;;;;;4.18;1.98;;;13.00;99.90;;;;;;4923893;29;20245;-93
2021/08/28 03:28:35;;;;;;;1.92;1.73;;;12.90;99.90;;;;;;4925403;29;20182;-94
2021/08/28 03:31:02;;;;;;;1.95;1.80;;;12.90;99.90;;;;;;4925869;29;20197;-95
2021/08/28 03:33:29;;;;;;;3.78;1.85;;;12.90;99.90;;;;;;4921510;29;20204;-94
2021/08/28 03:35:56;;;;;;;2.78;2.10;;;12.90;99.90;;;;;;4913701;29;20217;-96
2021/08/28 03:38:23;;;;;;;3.17;1.90;;;12.90;99.90;;;;;;4907592;29;20694;-96
2021/08/28 03:40:48;;;;;;;4.13;2.20;;;12.90;99.90;;;;;;4906407;29;20285;-94
2021/08/28 03:43:14;;;;;;;4.47;2.28;;;12.90;99.90;;;;;;4909952;29;20214;-95
2021/08/28 03:45:41;;;;;;;2.35;1.95;;;12.90;99.90;;;;;;4908171;29;20258;-96
2021/08/28 03:48:07;;;;;;;5.25;1.90;;;12.90;99.90;;;;;;4907224;29;20214;-94
2021/08/28 03:50:33;;;;;;;4.13;2.40;;;12.90;99.90;;;;;;4920254;29;20209;-93
2021/08/28 03:52:59;;;;;;;2.97;2.22;;;12.90;99.90;;;;;;4907384;29;20217;-96
2021/08/28 03:55:26;;;;;;;3.58;2.10;;;12.90;99.90;;;;;;4929340;29;20206;-96
2021/08/28 03:57:52;;;;;;;1.98;1.80;;;12.90;99.90;;;;;;4908162;29;20289;-96
2021/08/28 04:00:17;;;;;;;2.97;1.90;;;12.80;99.90;;;;;;4919068;29;20221;-95
2021/08/28 04:02:43;;;;;;;3.42;1.98;;;12.90;99.90;;;;;;4907851;29;20214;-95
2021/08/28 04:05:09;;;;;;;3.65;1.83;;;12.80;99.90;;;;;;4907644;29;20215;-95
2021/08/28 04:07:39;;;;;;;2.80;1.90;;;12.80;99.90;;;;;;4908930;29;20186;-96
2021/08/28 04:10:07;;;;;;;2.75;2.08;;;12.80;99.90;;;;;;4908020;29;20194;-96
2021/08/28 04:12:33;;;;;;;3.97;1.98;;;12.80;99.90;;;;;;4909054;29;20261;-96
2021/08/28 04:14:58;;;;;;;2.47;2.00;;;12.70;99.90;;;;;;4927493;29;20233;-96
2021/08/28 04:17:24;;;;;;;2.35;1.95;;;12.70;99.90;;;;;;4926892;29;20200;-96
2021/08/28 04:19:50;;;;;;;3.30;2.17;;;12.70;99.90;;;;;;4918467;29;20193;-96
2021/08/28 04:22:16;;;;;;;2.33;1.90;;;12.70;99.90;;;;;;4923371;29;20281;-96
2021/08/28 04:24:41;;;;;;;2.95;2.05;;;12.80;99.90;;;;;;4914740;29;20645;-96
2021/08/28 04:27:07;;;;;;;2.20;2.00;;;12.70;99.90;;;;;;4908217;29;20293;-94
2021/08/28 04:29:33;;;;;;;2.20;2.00;;;12.80;99.90;;;;;;4919547;29;20201;-95
2021/08/28 04:31:59;;;;;;;3.53;2.30;;;12.70;99.90;;;;;;4920514;29;20182;-96
2021/08/28 04:34:24;;;;;;;8.82;2.30;;;12.70;99.90;;;;;;4909864;29;20262;-96
2021/08/28 04:36:51;;;;;;;8.20;2.28;;;12.70;99.90;;;;;;4909440;29;20232;-96
2021/08/28 04:39:18;;;;;;;7.57;2.30;;;12.70;99.90;;;;;;4908872;29;20277;-96
2021/08/28 04:41:44;;;;;;;2.97;2.10;;;12.70;99.90;;;;;;4925050;29;20182;-96
2021/08/28 04:44:09;;;;;;;2.20;2.00;;;12.80;99.90;;;;;;4927111;29;20193;-92
2021/08/28 04:46:35;;;;;;;5.88;2.03;;;12.80;99.90;;;;;;4921407;29;20552;-93
2021/08/28 04:49:01;;;;;;;6.07;1.90;;;12.80;99.90;;;;;;4920928;29;20349;-93
2021/08/28 04:51:26;;;;;;;3.88;2.42;;;12.80;99.90;;;;;;4916800;29;20234;-92
2021/08/28 04:53:52;;;;;;;3.95;2.13;;;12.80;99.90;;;;;;4916179;29;20187;-93
2021/08/28 04:56:18;;;;;;;2.42;2.17;;;12.80;99.90;;;;;;4901674;29;20631;-93
2021/08/28 04:58:44;;;;;;;2.30;2.00;;;12.80;99.90;;;;;;4905318;29;20219;-93
2021/08/28 05:01:10;;;;;;;3.97;2.20;;;12.80;99.90;;;;;;4905611;29;20187;-92
2021/08/28 05:03:36;;;;;;;2.72;2.35;;;12.80;99.90;;;;;;4905719;29;20213;-93
2021/08/28 05:06:03;;;;;;;3.22;2.25;;;12.90;99.90;;;;;;4906312;29;20250;-93
2021/08/28 05:08:28;;;;;;;3.38;2.50;;;12.90;99.90;;;;;;4907410;29;20195;-92
2021/08/28 05:10:54;;;;;;;4.97;2.38;;;12.90;99.90;;;;;;4916851;29;20200;-95
2021/08/28 05:13:20;;;;;;;3.05;2.35;;;12.90;99.90;;;;;;4905202;29;20285;-96
2021/08/28 05:15:46;;;;;;;2.70;2.45;;;12.90;99.90;;;;;;4913457;29;20557;-92
2021/08/28 05:18:12;;;;;;;2.83;2.22;;;12.90;99.90;;;;;;4912367;29;20206;-93
2021/08/28 05:20:38;;;;;;;4.15;2.38;;;13.00;99.90;;;;;;4919393;29;20527;-93
2021/08/28 05:23:05;;;;;;;3.63;2.42;;;13.00;99.90;;;;;;4921509;29;20316;-93
2021/08/28 05:25:31;;;;;;;2.50;2.30;;;13.00;99.90;;;;;;4919574;29;20198;-92
2021/08/28 05:27:57;;;;;;;3.72;2.58;;;13.00;99.90;;;;;;4907971;29;20221;-92
2021/08/28 05:30:22;;;;;;;3.88;2.60;;;13.10;99.90;;;;;;4914307;29;20218;-93
2021/08/28 05:32:48;;;;;;;3.00;2.58;;;13.10;99.90;;;;;;4915518;29;20190;-92
2021/08/28 05:35:14;;;;;;;3.10;2.80;;;13.10;99.90;;;;;;4910760;29;20218;-95
2021/08/28 05:37:40;;;;;;;4.43;2.53;;;13.10;99.90;;;;;;4924368;29;20246;-96
2021/08/28 05:40:06;;;;;;;3.60;2.95;;;13.10;99.90;;;;;;4924489;29;20190;-96
2021/08/28 05:42:33;;;;;;;3.50;3.20;;;13.20;99.90;;;;;;4928248;29;20209;-96
2021/08/28 05:44:59;;;;;;;5.07;2.78;;;13.20;99.90;;;;;;4935587;29;20167;-96
2021/08/28 05:47:27;;;;;;;5.13;3.03;;;13.20;99.90;;;;;;4920067;29;20218;-96
2021/08/28 05:49:53;;;;;;;4.97;3.05;;;13.30;99.90;;;;;;4936512;29;20191;-96
2021/08/28 05:52:20;;;;;;;4.93;3.00;;;13.40;99.90;;;;;;4933655;29;20217;-96
2021/08/28 05:54:46;;;;;;;3.97;3.08;;;13.30;99.90;;;;;;4935832;29;20191;-96
2021/08/28 05:57:17;;;;;;;3.50;3.00;;;13.30;99.90;;;;;;4935193;29;20746;-95
2021/08/28 05:59:44;;;;;;;3.13;2.83;;;13.30;99.90;;;;;;4937244;29;20175;-96
2021/08/28 06:02:20;;;;;;;3.53;3.22;;;13.30;99.90;;;;;;4935687;29;20222;-96
2021/08/28 06:04:48;;;;;;;3.95;3.08;;;13.40;99.90;;;;;;4920551;29;20705;-96
2021/08/28 06:07:14;;;;;;;5.15;3.10;;;13.40;99.90;;;;;;4935111;29;20202;-96
2021/08/28 06:09:39;;;;;;;3.53;3.20;;;13.40;99.90;;;;;;4933902;29;20193;-96
2021/08/28 06:12:05;;;;;;;4.82;3.15;;;13.40;99.90;;;;;;4936461;29;20218;-95
2021/08/28 06:14:34;;;;;;;3.17;2.88;;;13.50;99.90;;;;;;4935425;29;20218;-96
2021/08/28 06:17:02;;;;;;;4.03;3.08;;;13.60;99.90;;;;;;4936529;29;20234;-96
2021/08/28 06:19:28;;;;;;;3.38;3.10;;;13.70;99.90;;;;;;4938696;29;20206;-95
2021/08/28 06:21:54;;;;;;;3.50;2.90;;;13.70;99.90;;;;;;4954524;29;20244;-96
2021/08/28 06:24:22;;;;;;;2.92;2.65;;;13.80;99.90;;;;;;4938952;29;20598;-96
2021/08/28 06:26:47;;;;;;;3.75;2.95;;;13.80;99.90;;;;;;4922223;29;20229;-96
2021/08/28 06:29:14;;;;;;;3.40;2.85;;;13.70;99.90;;;;;;4936392;29;20194;-93
2021/08/28 06:31:41;;;;;;;4.80;3.13;;;13.80;99.90;;;;;;4931101;29;20523;-94
2021/08/28 06:34:07;;;;;;;4.18;2.40;;;13.80;99.90;;;;;;4934575;29;20190;-94
2021/08/28 06:36:33;;;;;;;3.20;2.60;;;13.80;99.90;;;;;;4929990;29;20218;-93
2021/08/28 06:39:00;;;;;;;3.90;2.80;;;13.90;99.90;;;;;;4934035;29;20182;-95
2021/08/28 06:41:26;;;;;;;2.90;2.28;;;13.90;99.90;;;;;;4934404;29;20201;-93
2021/08/28 06:43:55;;;;;;;6.32;2.42;;;14.00;99.90;;;;;;4937250;29;20186;-96
2021/08/28 06:46:21;;;;;;;3.05;2.20;;;14.10;99.90;;;;;;4932364;29;20186;-93
2021/08/28 06:48:49;;;;;;;2.55;2.10;;;14.10;99.90;;;;;;4932248;29;20209;-95
2021/08/28 06:51:15;;;;;;;3.30;1.88;;;14.10;99.90;;;;;;4932190;29;20192;-95
2021/08/28 06:53:41;;;;;;;3.20;1.73;;;14.10;99.90;;;;;;4928795;29;20200;-96
2021/08/28 06:56:06;;;;;;;3.60;1.90;;;14.10;99.90;;;;;;4928078;29;20253;-96
2021/08/28 06:58:32;;;;;;;1.77;1.67;;;14.10;99.90;;;;;;4930701;29;20189;-96
2021/08/28 07:00:58;;;;;;;2.00;1.83;;;14.10;99.90;;;;;;4927855;29;20692;-95
2021/08/28 07:03:24;;;;;;;2.67;1.80;;;14.20;99.90;;;;;;4927050;29;20190;-96
2021/08/28 07:05:49;;;;;;;3.83;1.60;;;14.20;99.90;;;;;;4932086;29;20193;-93
2021/08/28 07:08:15;;;;;;;2.15;1.92;;;14.30;99.90;;;;;;4925594;29;20273;-95
2021/08/28 07:10:43;;;;;;;2.58;1.63;;;14.40;99.90;;;;;;4930607;29;20175;-94
2021/08/28 07:13:09;;;;;;;1.98;1.70;;;14.50;99.90;;;;;;4924789;29;20213;-94
2021/08/28 07:15:34;;;;;;;2.63;2.03;;;14.50;99.90;;;;;;4920944;29;20209;-94
2021/08/28 07:18:00;;;;;;;3.15;1.60;;;14.60;99.90;;;;;;4920740;29;20531;-94
2021/08/28 07:20:26;;;;;;;1.92;1.70;;;14.60;99.90;;;;;;4921189;29;20186;-94
2021/08/28 07:22:51;;;;;;;3.38;1.67;;;14.70;99.90;;;;;;4924973;29;20233;-95
2021/08/28 07:25:18;;;;;;;2.60;1.50;;;14.80;99.90;;;;;;4925153;29;20210;-93
2021/08/28 07:27:44;;;;;;;2.95;1.70;;;14.80;99.90;;;;;;4927103;29;20194;-94
2021/08/28 07:30:10;;;;;;;4.55;1.50;;;14.90;99.90;;;;;;4927515;29;20193;-94
2021/08/28 07:32:36;;;;;;;1.83;1.58;;;15.00;99.90;;;;;;4926888;29;20194;-95
2021/08/28 07:35:09;;;;;;;1.50;1.30;;;15.00;99.90;;;;;;4925979;29;20274;-94
2021/08/28 07:37:35;;;;;;;1.75;1.08;;;15.10;99.90;;;;;;4926448;29;20195;-95
2021/08/28 07:40:02;;;;;;;2.90;1.10;;;15.20;99.90;;;;;;4926295;29;20448;-94
2021/08/28 07:42:27;;;;;;;0.85;0.85;;;15.40;99.90;;;;;;4923637;29;20202;-95
2021/08/28 07:44:53;;;;;;;1.05;0.90;;;15.50;99.90;;;;;;4926323;29;20842;-95
2021/08/28 07:47:19;;;;;;;1.25;0.98;;;15.50;99.90;;;;;;4926294;29;20187;-94
2021/08/28 07:49:46;;;;;;;2.72;1.40;;;15.70;99.90;;;;;;4922612;29;20220;-95
2021/08/28 07:52:14;;;;;;;2.65;1.10;;;15.80;99.90;;;;;;4923719;29;20186;-94
2021/08/28 07:54:47;;;;;;;2.55;0.80;;;15.80;99.90;;;;;;4925505;29;20226;-95
2021/08/28 07:57:20;;;;;;;2.05;0.80;;;15.90;99.90;;;;;;4925066;29;20213;-95
2021/08/28 07:59:47;;;;;;;1.40;0.80;;;16.00;99.90;;;;;;4925424;29;20219;-95
2021/08/28 08:02:19;;;;;;;1.67;0.70;;;16.00;99.90;;;;;;4924100;29;20182;-96
2021/08/28 08:04:45;;;;;;;3.47;0.88;;;16.10;99.90;;;;;;4923872;29;20187;-95
2021/08/28 08:07:14;;;;;;;0.90;0.75;;;16.30;99.90;;;;;;4908389;29;20198;-96
2021/08/28 08:09:41;;;;;;;1.40;0.80;;;16.50;99.90;;;;;;4923951;29;20182;-95
2021/08/28 08:12:07;;;;;;;0.93;0.60;;;16.50;99.90;;;;;;4922957;29;20238;-94
2021/08/28 08:14:32;;;;;;;1.15;0.80;;;16.50;99.90;;;;;;4904911;29;20194;-94
2021/08/28 08:16:59;;;;;;;1.42;0.60;;;16.40;99.90;;;;;;4919659;29;20218;-92
2021/08/28 08:19:47;;;;;;;1.90;0.77;;;16.20;99.90;;;;;;4922078;29;20250;-92
2021/08/28 08:22:13;;;;;;;1.55;0.70;;;16.20;99.90;;;;;;4922219;29;20187;-96
2021/08/28 08:24:39;;;;;;;1.90;0.70;;;16.00;99.90;;;;;;4929601;29;20197;-96
2021/08/28 08:27:06;;;;;;;2.20;0.80;;;15.90;99.90;;;;;;4943048;29;20213;-96
2021/08/28 08:29:36;;;;;;;0.88;0.63;;;15.70;99.90;;;;;;4927898;29;20202;-96
2021/08/28 08:32:02;;;;;;;1.20;0.70;;;15.70;99.90;;;;;;4927100;29;20260;-96
2021/08/28 08:34:28;;;;;;;2.78;1.00;;;15.60;99.90;;;;;;4931711;29;20189;-96
2021/08/28 08:37:02;;;;;;;1.20;0.90;;;15.60;99.90;;;;;;4933390;29;20253;-96
2021/08/28 08:39:29;;;;;;;2.85;1.00;;;15.70;99.90;;;;;;4931660;29;20613;-96
2021/08/28 08:42:00;;;;;;;3.05;0.95;;;15.70;99.90;;;;;;4930521;29;20190;-96
2021/08/28 08:44:35;;;;;;;1.85;0.80;;;15.80;99.90;;;;;;4932120;29;20193;-96
2021/08/28 08:47:02;;;;;;;0.80;0.80;;;15.80;99.90;;;;;;4946980;29;20280;-94
2021/08/28 08:49:28;;;;;;;4.53;0.80;;;16.00;99.90;;;;;;4927150;29;20194;-94
2021/08/28 08:51:55;;;;;;;2.13;0.98;;;16.10;99.90;;;;;;4924873;29;20190;-96
2021/08/28 08:54:21;;;;;;;2.55;1.00;;;16.20;99.90;;;;;;4924877;29;20614;-95
2021/08/28 08:56:47;;;;;;;2.05;0.90;;;16.20;99.90;;;;;;4924311;29;20237;-96
2021/08/28 08:59:13;;;;;;;1.10;0.82;;;16.30;99.90;;;;;;4924126;29;20190;-96
2021/08/28 09:01:40;;;;;;;1.10;0.93;;;16.30;99.90;;;;;;4924419;29;20708;-96
2021/08/28 09:04:07;;;;;;;1.23;1.05;;;16.30;99.90;;;;;;4924583;29;20178;-96
2021/08/28 09:06:32;;;;;;;1.80;0.85;;;16.20;99.90;;;;;;4924250;29;20182;-96
2021/08/28 09:09:01;;;;;;;2.08;1.30;;;16.10;99.90;;;;;;4926423;29;20261;-96
2021/08/28 09:11:33;;;;;;;0.98;0.90;;;16.10;99.90;;;;;;4926143;29;20325;-96
2021/08/28 09:14:18;;;;;;;2.38;1.00;;;16.10;99.90;;;;;;4925682;29;20625;-96
2021/08/28 09:16:45;;;;;;;1.10;1.00;;;16.10;99.90;;;;;;4924632;29;20627;-96
2021/08/28 09:19:12;;;;;;;4.13;0.90;;;16.20;99.90;;;;;;4923882;29;20617;-96
2021/08/28 09:21:41;;;;;;;1.13;1.02;;;16.20;99.90;;;;;;4924587;29;20245;-96
2021/08/28 09:24:10;;;;;;;1.20;0.80;;;16.30;99.90;;;;;;4921971;29;20328;-96
2021/08/28 09:26:45;;;;;;;1.63;1.08;;;16.30;99.90;;;;;;4921903;29;20205;-96
2021/08/28 09:29:15;;;;;;;1.58;0.90;;;16.40;99.90;;;;;;4924797;29;20186;-96
2021/08/28 09:31:53;;;;;;;1.10;1.00;;;16.40;99.90;;;;;;4923869;29;20198;-96
2021/08/28 09:34:27;;;;;;;1.85;1.00;;;16.50;99.90;;;;;;4922566;29;20194;-96
2021/08/28 09:37:07;;;;;;;0.85;0.82;;;16.50;99.90;;;;;;4922255;29;20277;-96
2021/08/28 09:39:46;;;;;;;1.15;0.88;;;16.60;99.90;;;;;;4922917;29;20649;-95
2021/08/28 09:42:28;;;;;;;1.98;0.90;;;16.60;99.90;;;;;;4922329;29;20294;-96
2021/08/28 09:45:08;;;;;;;2.33;0.80;;;16.60;99.90;;;;;;4921509;29;20187;-96
2021/08/28 09:47:34;;;;;;;1.23;0.80;;;16.50;99.90;;;;;;4907265;29;20633;-96
2021/08/28 09:50:30;;;;;;;1.05;0.95;;;16.50;99.90;;;;;;4924064;29;20202;-96
2021/08/28 09:53:16;;;;;;;1.45;0.90;;;16.40;99.90;;;;;;4925144;29;20177;-96
2021/08/28 09:56:11;;;;;;;1.38;0.80;;;16.20;99.90;;;;;;4909477;29;20286;-96
2021/08/28 09:58:46;;;;;;;1.35;1.00;;;16.10;99.90;;;;;;4876044;29;20207;-96
2021/08/28 10:01:26;;;;;;;2.33;1.05;;;16.10;99.90;;;;;;4922342;29;20193;-96
2021/08/28 10:06:29;;;;;;;1.25;0.82;;;16.10;99.90;;;;;;4934495;27;20370;-95
2021/08/28 10:09:19;;;;;;;1.23;1.00;;;16.20;99.90;;;;;;4918395;29;20264;-96
2021/08/28 10:11:54;;;;;;;1.17;1.08;;;16.40;99.90;;;;;;4921710;29;20273;-96
2021/08/28 10:14:35;;;;;;;2.38;0.85;;;16.50;99.90;;;;;;4914822;29;20186;-95
2021/08/28 10:18:06;;;;;;;2.97;1.10;;;16.60;99.90;;;;;;4924920;29;20281;-96
2021/08/28 10:23:08;;;;;;;1.45;0.90;;;16.40;99.90;;;;;;4945376;29;20238;-96
2021/08/28 10:25:37;;;;;;;1.08;0.93;;;16.20;99.90;;;;;;4969602;23;20217;-96
2021/08/28 10:28:04;;;;;;;1.13;1.00;;;16.10;99.90;;;;;;4905598;29;20214;-96
2021/08/28 10:30:30;;;;;;;2.70;1.20;;;16.00;99.90;;;;;;4905425;29;20237;-96
2021/08/28 10:33:01;;;;;;;2.03;1.20;;;16.10;99.90;;;;;;4889865;29;20661;-96
2021/08/28 10:35:30;;;;;;;3.20;1.60;;;16.10;99.90;;;;;;4966052;23;20247;-96
2021/08/28 10:37:56;;;;;;;2.13;1.60;;;16.10;99.90;;;;;;4882534;29;20279;-96
2021/08/28 10:40:34;;;;;;;1.90;1.70;;;16.20;99.90;;;;;;4881584;29;20216;-95
2021/08/28 10:43:38;;;;;;;1.92;1.52;;;16.20;99.90;;;;;;4879893;29;20231;-96
2021/08/28 10:46:21;;;;;;;2.92;1.80;;;16.40;99.90;;;;;;4865183;29;20196;-96
2021/08/28 10:48:57;;;;;;;2.50;2.20;;;16.50;99.90;;;;;;4882125;29;20184;-96
2021/08/28 10:51:34;;;;;;;5.25;1.95;;;16.60;99.90;;;;;;4877761;29;20691;-95
2021/08/28 10:54:34;;;;;;;2.08;1.88;;;16.50;99.90;;;;;;4883839;29;20544;-96
2021/08/28 10:57:04;;;;;;;3.00;1.80;;;16.60;99.90;;;;;;4845581;29;20324;-96
2021/08/28 10:59:53;;;;;;;2.10;1.85;;;16.60;99.90;;;;;;4836210;29;20372;-96
2021/08/28 11:02:23;;;;;;;3.45;1.90;;;16.70;99.90;;;;;;4856463;29;20196;-96
2021/08/28 11:05:21;;;;;;;2.42;2.08;;;16.70;99.90;;;;;;4835956;29;20696;-96
2021/08/28 11:08:15;;;;;;;2.30;2.08;;;16.90;99.90;;;;;;4851248;29;20266;-96
2021/08/28 11:10:43;;;;;;;4.30;2.47;;;17.20;99.90;;;;;;4844202;29;20245;-96
2021/08/28 11:13:09;;;;;;;3.22;2.10;;;17.50;99.90;;;;;;4854525;29;20188;-96
2021/08/28 11:16:03;;;;;;;2.67;2.30;;;17.70;99.90;;;;;;4892185;29;20262;-96
2021/08/28 11:18:45;;;;;;;2.33;2.13;;;17.90;99.90;;;;;;4887576;29;20215;-96
2021/08/28 11:21:11;;;;;;;1.90;1.70;;;17.90;99.90;;;;;;4889885;29;20216;-95
2021/08/28 11:23:43;;;;;;;4.18;2.03;;;17.90;99.90;;;;;;4895960;29;20192;-95
2021/08/28 11:26:31;;;;;;;3.30;2.03;;;17.80;99.90;;;;;;4894256;29;20203;-96
2021/08/28 11:34:37;;;;;;;2.60;2.40;;;17.70;99.90;;;;;;4930012;29;20242;-96
2021/08/28 11:37:53;;;;;;;3.15;2.30;;;17.70;99.90;;;;;;4929614;29;20262;-96
2021/08/28 11:40:37;;;;;;;2.38;2.17;;;17.90;99.90;;;;;;4930739;29;20190;-96
2021/08/28 11:43:11;;;;;;;2.63;1.90;;;18.00;99.90;;;;;;4930676;29;20191;-96
2021/08/28 11:46:09;;;;;;;2.80;1.98;;;18.30;99.90;;;;;;4927737;29;20187;-96
2021/08/28 11:48:42;;;;;;;2.63;1.70;;;18.30;99.90;;;;;;4924446;29;20201;-95
2021/08/28 11:51:17;;;;;;;2.42;1.55;;;18.30;99.90;;;;;;4931552;29;20707;-96
2021/08/28 11:53:46;;;;;;;1.88;1.73;;;18.40;99.90;;;;;;4930443;29;20193;-96
2021/08/28 11:56:16;;;;;;;3.13;1.90;;;18.50;99.90;;;;;;4930535;29;20221;-95
2021/08/28 11:58:56;;;;;;;2.35;1.95;;;18.60;99.90;;;;;;4926825;29;20179;-95
2021/08/28 12:01:36;;;;;;;2.58;1.77;;;18.70;99.90;;;;;;4925272;29;20213;-96
2021/08/28 12:04:13;;;;;;;2.03;1.83;;;18.70;99.90;;;;;;4927381;29;20313;-96
2021/08/28 12:07:03;;;;;;;1.92;1.65;;;18.70;99.90;;;;;;4926141;29;20201;-95
2021/08/28 12:09:32;;;;;;;2.08;1.45;;;18.60;99.90;;;;;;4928102;29;20178;-96
2021/08/28 12:12:01;;;;;;;1.67;1.48;;;18.70;99.90;;;;;;4924418;29;20214;-96
2021/08/28 12:14:30;;;;;;;2.30;1.80;;;18.70;99.90;;;;;;4929373;29;20187;-96
2021/08/28 12:17:08;;;;;;;2.17;1.60;;;18.60;99.90;;;;;;4928794;29;20278;-96
2021/08/28 12:19:36;;;;;;;2.10;1.90;;;18.60;99.90;;;;;;4927856;29;20265;-96
2021/08/28 12:22:05;;;;;;;1.63;1.45;;;18.60;99.90;;;;;;4930292;29;20582;-96
2021/08/28 12:24:36;;;;;;;1.80;1.50;;;18.60;99.90;;;;;;4930277;29;20182;-96
2021/08/28 12:27:08;;;;;;;2.65;1.60;;;18.50;99.90;;;;;;4928629;29;20174;-96
2021/08/28 12:29:39;;;;;;;2.55;1.73;;;18.50;99.90;;;;;;4929145;29;20202;-96
2021/08/28 12:32:11;;;;;;;2.10;1.63;;;18.70;99.90;;;;;;4932751;29;20214;-95
2021/08/28 12:34:59;;;;;;;1.70;1.48;;;18.80;99.90;;;;;;4896026;29;20199;-96
2021/08/28 12:37:33;;;;;;;2.10;1.80;;;18.90;99.90;;;;;;4899537;29;20211;-96
2021/08/28 12:40:07;;;;;;;2.15;1.73;;;18.90;99.90;;;;;;4900495;29;20203;-96
2021/08/28 12:42:35;;;;;;;1.98;1.60;;;18.60;99.90;;;;;;4900054;29;20194;-96
2021/08/28 12:45:05;;;;;;;2.70;1.80;;;18.50;99.90;;;;;;4899888;29;20267;-96
2021/08/28 12:47:36;;;;;;;2.17;1.95;;;18.40;99.90;;;;;;4897224;29;20183;-94
2021/08/28 12:50:03;;;;;;;2.10;1.85;;;18.30;99.90;;;;;;4891252;29;20184;-96
2021/08/28 12:52:44;;;;;;;2.08;1.85;;;18.20;99.90;;;;;;4889215;29;20258;-96
2021/08/28 12:55:31;;;;;;;2.47;1.95;;;18.10;99.90;;;;;;4887575;29;20187;-96
2021/08/28 12:58:06;;;;;;;2.72;1.92;;;18.00;99.90;;;;;;4891234;29;20579;-96
2021/08/28 13:00:45;;;;;;;3.17;1.95;;;18.00;99.90;;;;;;4893670;29;20206;-96
2021/08/28 13:03:39;;;;;;;2.40;1.92;;;18.00;99.90;;;;;;4896669;29;20195;-96
2021/08/28 13:09:16;;;;;;;2.38;1.90;;;18.10;99.90;;;;;;4906435;29;20637;-95
2021/08/28 13:11:54;;;;;;;2.28;1.83;;;18.10;99.90;;;;;;4888848;29;20239;-95
2021/08/28 13:14:20;;;;;;;2.53;1.92;;;18.10;99.90;;;;;;4895013;29;20184;-95
2021/08/28 13:17:13;;;;;;;2.20;1.77;;;18.10;99.90;;;;;;4893885;29;20215;-95
2021/08/28 13:19:40;;;;;;;2.53;1.70;;;18.10;99.90;;;;;;4896642;29;20183;-96